sensor_id;sensor_type;location;lat;lon;timestamp;temperature;humidity
64858;SHT30;51335;51.148;6.950;2022-07-23T00:00:10;17.17;92.34
64858;SHT30;51335;51.148;6.950;2022-07-23T00:00:41;17.16;92.39
64858;SHT30;51335;51.148;6.950;2022-07-23T00:01:11;17.12;92.45
64858;SHT30;51335;51.148;6.950;2022-07-23T00:01:41;17.06;92.55
64858;SHT30;51335;51.148;6.950;2022-07-23T00:02:12;17.02;92.74
64858;SHT30;51335;51.148;6.950;2022-07-23T00:02:42;16.96;92.93
64858;SHT30;51335;51.148;6.950;2022-07-23T00:03:13;16.92;93.07
64858;SHT30;51335;51.148;6.950;2022-07-23T00:03:43;17.00;93.06
64858;SHT30;51335;51.148;6.950;2022-07-23T00:04:13;16.92;93.12
64858;SHT30;51335;51.148;6.950;2022-07-23T00:04:43;16.93;93.08
64858;SHT30;51335;51.148;6.950;2022-07-23T00:05:14;16.95;93.22
64858;SHT30;51335;51.148;6.950;2022-07-23T00:05:44;17.00;92.52
64858;SHT30;51335;51.148;6.950;2022-07-23T00:06:15;16.99;92.40
64858;SHT30;51335;51.148;6.950;2022-07-23T00:06:45;16.95;92.43
64858;SHT30;51335;51.148;6.950;2022-07-23T00:07:16;16.99;92.60
64858;SHT30;51335;51.148;6.950;2022-07-23T00:07:47;16.90;92.37
64858;SHT30;51335;51.148;6.950;2022-07-23T00:08:17;16.93;92.73
64858;SHT30;51335;51.148;6.950;2022-07-23T00:08:47;16.92;92.70
64858;SHT30;51335;51.148;6.950;2022-07-23T00:09:18;16.99;92.66
64858;SHT30;51335;51.148;6.950;2022-07-23T00:09:48;16.92;92.29
64858;SHT30;51335;51.148;6.950;2022-07-23T00:10:18;16.92;92.63
64858;SHT30;51335;51.148;6.950;2022-07-23T00:10:49;16.99;92.47
64858;SHT30;51335;51.148;6.950;2022-07-23T00:11:19;17.00;92.43
64858;SHT30;51335;51.148;6.950;2022-07-23T00:11:49;17.02;92.11
64858;SHT30;51335;51.148;6.950;2022-07-23T00:12:20;17.00;92.01
64858;SHT30;51335;51.148;6.950;2022-07-23T00:12:50;16.97;92.12
64858;SHT30;51335;51.148;6.950;2022-07-23T00:13:20;16.92;92.14
64858;SHT30;51335;51.148;6.950;2022-07-23T00:13:51;16.85;92.39
64858;SHT30;51335;51.148;6.950;2022-07-23T00:14:21;16.79;92.48
64858;SHT30;51335;51.148;6.950;2022-07-23T00:14:52;16.80;93.04
64858;SHT30;51335;51.148;6.950;2022-07-23T00:15:22;16.80;93.14
64858;SHT30;51335;51.148;6.950;2022-07-23T00:15:52;16.82;93.26
64858;SHT30;51335;51.148;6.950;2022-07-23T00:16:23;16.78;93.27
64858;SHT30;51335;51.148;6.950;2022-07-23T00:16:53;16.80;93.29
64858;SHT30;51335;51.148;6.950;2022-07-23T00:17:23;16.78;93.21
64858;SHT30;51335;51.148;6.950;2022-07-23T00:17:54;16.76;93.35
64858;SHT30;51335;51.148;6.950;2022-07-23T00:18:24;16.76;93.54
64858;SHT30;51335;51.148;6.950;2022-07-23T00:18:54;16.78;93.46
64858;SHT30;51335;51.148;6.950;2022-07-23T00:19:25;16.72;93.46
64858;SHT30;51335;51.148;6.950;2022-07-23T00:19:55;16.69;93.55
64858;SHT30;51335;51.148;6.950;2022-07-23T00:20:25;16.68;93.67
64858;SHT30;51335;51.148;6.950;2022-07-23T00:20:56;16.64;93.78
64858;SHT30;51335;51.148;6.950;2022-07-23T00:21:26;16.68;93.94
64858;SHT30;51335;51.148;6.950;2022-07-23T00:21:57;16.61;94.01
64858;SHT30;51335;51.148;6.950;2022-07-23T00:22:27;16.62;94.18
64858;SHT30;51335;51.148;6.950;2022-07-23T00:22:57;16.61;93.91
64858;SHT30;51335;51.148;6.950;2022-07-23T00:23:27;16.62;94.04
64858;SHT30;51335;51.148;6.950;2022-07-23T00:23:58;16.67;94.02
64858;SHT30;51335;51.148;6.950;2022-07-23T00:24:28;16.69;93.99
64858;SHT30;51335;51.148;6.950;2022-07-23T00:24:59;16.67;93.80
64858;SHT30;51335;51.148;6.950;2022-07-23T00:25:29;16.64;93.65
64858;SHT30;51335;51.148;6.950;2022-07-23T00:25:59;16.68;93.16
64858;SHT30;51335;51.148;6.950;2022-07-23T00:26:29;16.65;93.00
64858;SHT30;51335;51.148;6.950;2022-07-23T00:27:00;16.68;92.95
64858;SHT30;51335;51.148;6.950;2022-07-23T00:27:30;16.64;92.93
64858;SHT30;51335;51.148;6.950;2022-07-23T00:28:01;16.62;93.10
64858;SHT30;51335;51.148;6.950;2022-07-23T00:28:31;16.62;93.18
64858;SHT30;51335;51.148;6.950;2022-07-23T00:29:01;16.59;93.18
64858;SHT30;51335;51.148;6.950;2022-07-23T00:29:32;16.59;93.19
64858;SHT30;51335;51.148;6.950;2022-07-23T00:30:02;16.57;93.26
64858;SHT30;51335;51.148;6.950;2022-07-23T00:30:33;16.54;93.32
64858;SHT30;51335;51.148;6.950;2022-07-23T00:31:03;16.54;93.37
64858;SHT30;51335;51.148;6.950;2022-07-23T00:31:33;16.51;93.43
64858;SHT30;51335;51.148;6.950;2022-07-23T00:32:04;16.52;93.40
64858;SHT30;51335;51.148;6.950;2022-07-23T00:32:48;16.59;93.19
64858;SHT30;51335;51.148;6.950;2022-07-23T00:33:19;16.62;93.09
64858;SHT30;51335;51.148;6.950;2022-07-23T00:33:49;16.61;93.09
64858;SHT30;51335;51.148;6.950;2022-07-23T00:34:19;16.68;92.62
64858;SHT30;51335;51.148;6.950;2022-07-23T00:34:50;16.73;92.30
64858;SHT30;51335;51.148;6.950;2022-07-23T00:35:22;16.73;92.01
64858;SHT30;51335;51.148;6.950;2022-07-23T00:35:52;16.69;92.09
64858;SHT30;51335;51.148;6.950;2022-07-23T00:36:23;16.68;92.25
64858;SHT30;51335;51.148;6.950;2022-07-23T00:36:53;16.65;92.59
64858;SHT30;51335;51.148;6.950;2022-07-23T00:37:23;16.64;92.77
64858;SHT30;51335;51.148;6.950;2022-07-23T00:37:55;16.65;92.86
64858;SHT30;51335;51.148;6.950;2022-07-23T00:38:25;16.68;92.79
64858;SHT30;51335;51.148;6.950;2022-07-23T00:38:55;16.67;92.83
64858;SHT30;51335;51.148;6.950;2022-07-23T00:39:26;16.65;92.80
64858;SHT30;51335;51.148;6.950;2022-07-23T00:39:56;16.62;92.85
64858;SHT30;51335;51.148;6.950;2022-07-23T00:40:27;16.68;93.05
64858;SHT30;51335;51.148;6.950;2022-07-23T00:40:58;16.68;92.94
64858;SHT30;51335;51.148;6.950;2022-07-23T00:41:28;16.64;92.96
64858;SHT30;51335;51.148;6.950;2022-07-23T00:41:58;16.58;93.08
64858;SHT30;51335;51.148;6.950;2022-07-23T00:42:31;16.64;93.16
64858;SHT30;51335;51.148;6.950;2022-07-23T00:43:02;16.65;93.13
64858;SHT30;51335;51.148;6.950;2022-07-23T00:43:32;16.64;93.08
64858;SHT30;51335;51.148;6.950;2022-07-23T00:44:20;16.67;93.05
64858;SHT30;51335;51.148;6.950;2022-07-23T00:44:51;16.65;93.14
64858;SHT30;51335;51.148;6.950;2022-07-23T00:45:21;16.67;93.03
64858;SHT30;51335;51.148;6.950;2022-07-23T00:45:52;16.62;92.93
64858;SHT30;51335;51.148;6.950;2022-07-23T00:46:22;16.59;93.11
64858;SHT30;51335;51.148;6.950;2022-07-23T00:46:57;16.59;93.12
64858;SHT30;51335;51.148;6.950;2022-07-23T00:47:28;16.57;93.32
64858;SHT30;51335;51.148;6.950;2022-07-23T00:47:59;16.57;93.40
64858;SHT30;51335;51.148;6.950;2022-07-23T00:48:29;16.54;93.48
64858;SHT30;51335;51.148;6.950;2022-07-23T00:48:59;16.51;93.54
64858;SHT30;51335;51.148;6.950;2022-07-23T00:49:30;16.52;93.63
64858;SHT30;51335;51.148;6.950;2022-07-23T00:50:01;16.51;93.75
64858;SHT30;51335;51.148;6.950;2022-07-23T00:50:31;16.51;93.88
64858;SHT30;51335;51.148;6.950;2022-07-23T00:51:07;16.51;93.96
64858;SHT30;51335;51.148;6.950;2022-07-23T00:51:38;16.47;94.09
64858;SHT30;51335;51.148;6.950;2022-07-23T00:52:08;16.49;94.22
64858;SHT30;51335;51.148;6.950;2022-07-23T00:52:39;16.51;94.22
64858;SHT30;51335;51.148;6.950;2022-07-23T00:53:10;16.49;94.17
64858;SHT30;51335;51.148;6.950;2022-07-23T00:53:41;16.48;94.22
64858;SHT30;51335;51.148;6.950;2022-07-23T00:54:12;16.49;94.29
64858;SHT30;51335;51.148;6.950;2022-07-23T00:54:42;16.48;94.35
64858;SHT30;51335;51.148;6.950;2022-07-23T00:55:13;16.48;94.39
64858;SHT30;51335;51.148;6.950;2022-07-23T00:55:43;16.48;94.50
64858;SHT30;51335;51.148;6.950;2022-07-23T00:56:14;16.45;94.55
64858;SHT30;51335;51.148;6.950;2022-07-23T00:56:45;16.48;94.56
64858;SHT30;51335;51.148;6.950;2022-07-23T00:57:16;16.48;94.60
64858;SHT30;51335;51.148;6.950;2022-07-23T00:57:46;16.51;94.54
64858;SHT30;51335;51.148;6.950;2022-07-23T00:58:18;16.48;94.50
64858;SHT30;51335;51.148;6.950;2022-07-23T00:58:48;16.48;94.48
64858;SHT30;51335;51.148;6.950;2022-07-23T00:59:19;16.47;94.50
64858;SHT30;51335;51.148;6.950;2022-07-23T00:59:50;16.45;94.46
64858;SHT30;51335;51.148;6.950;2022-07-23T01:00:20;16.45;94.51
64858;SHT30;51335;51.148;6.950;2022-07-23T01:00:51;16.44;94.54
64858;SHT30;51335;51.148;6.950;2022-07-23T01:01:21;16.45;94.55
64858;SHT30;51335;51.148;6.950;2022-07-23T01:01:51;16.45;94.51
64858;SHT30;51335;51.148;6.950;2022-07-23T01:02:21;16.45;94.54
64858;SHT30;51335;51.148;6.950;2022-07-23T01:02:52;16.42;94.57
64858;SHT30;51335;51.148;6.950;2022-07-23T01:03:22;16.41;94.59
64858;SHT30;51335;51.148;6.950;2022-07-23T01:03:52;16.44;94.60
64858;SHT30;51335;51.148;6.950;2022-07-23T01:04:23;16.41;94.73
64858;SHT30;51335;51.148;6.950;2022-07-23T01:04:54;16.41;94.73
64858;SHT30;51335;51.148;6.950;2022-07-23T01:05:24;16.41;94.82
64858;SHT30;51335;51.148;6.950;2022-07-23T01:05:55;16.41;94.92
64858;SHT30;51335;51.148;6.950;2022-07-23T01:06:25;16.41;94.97
64858;SHT30;51335;51.148;6.950;2022-07-23T01:06:55;16.38;95.04
64858;SHT30;51335;51.148;6.950;2022-07-23T01:07:26;16.44;95.10
64858;SHT30;51335;51.148;6.950;2022-07-23T01:07:56;16.42;95.14
64858;SHT30;51335;51.148;6.950;2022-07-23T01:08:26;16.38;95.32
64858;SHT30;51335;51.148;6.950;2022-07-23T01:08:57;16.40;95.32
64858;SHT30;51335;51.148;6.950;2022-07-23T01:09:27;16.44;95.27
64858;SHT30;51335;51.148;6.950;2022-07-23T01:09:58;16.42;95.19
64858;SHT30;51335;51.148;6.950;2022-07-23T01:10:29;16.40;95.19
64858;SHT30;51335;51.148;6.950;2022-07-23T01:10:59;16.42;95.23
64858;SHT30;51335;51.148;6.950;2022-07-23T01:11:30;16.38;95.26
64858;SHT30;51335;51.148;6.950;2022-07-23T01:12:01;16.40;95.34
64858;SHT30;51335;51.148;6.950;2022-07-23T01:12:31;16.40;95.45
64858;SHT30;51335;51.148;6.950;2022-07-23T01:13:07;16.37;95.50
64858;SHT30;51335;51.148;6.950;2022-07-23T01:13:42;16.40;95.51
64858;SHT30;51335;51.148;6.950;2022-07-23T01:14:16;16.35;95.52
64858;SHT30;51335;51.148;6.950;2022-07-23T01:14:57;16.38;95.61
64858;SHT30;51335;51.148;6.950;2022-07-23T01:15:28;16.38;95.63
64858;SHT30;51335;51.148;6.950;2022-07-23T01:15:58;16.37;95.65
64858;SHT30;51335;51.148;6.950;2022-07-23T01:16:29;16.31;95.68
64858;SHT30;51335;51.148;6.950;2022-07-23T01:16:59;16.31;95.66
64858;SHT30;51335;51.148;6.950;2022-07-23T01:17:29;16.32;95.67
64858;SHT30;51335;51.148;6.950;2022-07-23T01:18:00;16.31;95.68
64858;SHT30;51335;51.148;6.950;2022-07-23T01:18:30;16.30;95.71
64858;SHT30;51335;51.148;6.950;2022-07-23T01:19:01;16.31;95.71
64858;SHT30;51335;51.148;6.950;2022-07-23T01:19:31;16.31;95.70
64858;SHT30;51335;51.148;6.950;2022-07-23T01:20:02;16.30;95.70
64858;SHT30;51335;51.148;6.950;2022-07-23T01:20:32;16.30;95.77
64858;SHT30;51335;51.148;6.950;2022-07-23T01:21:03;16.31;95.78
64858;SHT30;51335;51.148;6.950;2022-07-23T01:21:36;16.32;95.81
64858;SHT30;51335;51.148;6.950;2022-07-23T01:22:07;16.35;95.62
64858;SHT30;51335;51.148;6.950;2022-07-23T01:22:38;16.37;95.57
64858;SHT30;51335;51.148;6.950;2022-07-23T01:23:08;16.35;95.46
64858;SHT30;51335;51.148;6.950;2022-07-23T01:23:39;16.35;95.41
64858;SHT30;51335;51.148;6.950;2022-07-23T01:24:10;16.34;95.37
64858;SHT30;51335;51.148;6.950;2022-07-23T01:24:41;16.32;95.36
64858;SHT30;51335;51.148;6.950;2022-07-23T01:25:11;16.28;95.40
64858;SHT30;51335;51.148;6.950;2022-07-23T01:25:48;16.30;95.43
64858;SHT30;51335;51.148;6.950;2022-07-23T01:26:19;16.30;95.53
64858;SHT30;51335;51.148;6.950;2022-07-23T01:26:49;16.25;95.50
64858;SHT30;51335;51.148;6.950;2022-07-23T01:27:20;16.25;95.52
64858;SHT30;51335;51.148;6.950;2022-07-23T01:27:52;16.24;95.44
64858;SHT30;51335;51.148;6.950;2022-07-23T01:28:23;16.24;95.51
64858;SHT30;51335;51.148;6.950;2022-07-23T01:28:53;16.22;95.56
64858;SHT30;51335;51.148;6.950;2022-07-23T01:29:23;16.27;95.50
64858;SHT30;51335;51.148;6.950;2022-07-23T01:29:55;16.22;95.50
64858;SHT30;51335;51.148;6.950;2022-07-23T01:30:26;16.22;95.75
64858;SHT30;51335;51.148;6.950;2022-07-23T01:30:57;16.24;95.55
64858;SHT30;51335;51.148;6.950;2022-07-23T01:31:27;16.20;95.56
64858;SHT30;51335;51.148;6.950;2022-07-23T01:31:57;16.20;95.57
64858;SHT30;51335;51.148;6.950;2022-07-23T01:32:28;16.17;95.62
64858;SHT30;51335;51.148;6.950;2022-07-23T01:32:58;16.18;95.55
64858;SHT30;51335;51.148;6.950;2022-07-23T01:33:28;16.16;95.46
64858;SHT30;51335;51.148;6.950;2022-07-23T01:33:59;16.16;95.50
64858;SHT30;51335;51.148;6.950;2022-07-23T01:34:29;16.13;95.54
64858;SHT30;51335;51.148;6.950;2022-07-23T01:34:59;16.14;95.54
64858;SHT30;51335;51.148;6.950;2022-07-23T01:35:30;16.16;95.51
64858;SHT30;51335;51.148;6.950;2022-07-23T01:36:00;16.16;95.47
64858;SHT30;51335;51.148;6.950;2022-07-23T01:36:30;16.16;95.39
64858;SHT30;51335;51.148;6.950;2022-07-23T01:37:01;16.20;95.32
64858;SHT30;51335;51.148;6.950;2022-07-23T01:37:31;16.18;95.30
64858;SHT30;51335;51.148;6.950;2022-07-23T01:38:01;16.20;95.25
64858;SHT30;51335;51.148;6.950;2022-07-23T01:38:31;16.22;95.27
64858;SHT30;51335;51.148;6.950;2022-07-23T01:39:03;16.22;95.25
64858;SHT30;51335;51.148;6.950;2022-07-23T01:39:34;16.22;95.27
64858;SHT30;51335;51.148;6.950;2022-07-23T01:40:05;16.22;95.22
64858;SHT30;51335;51.148;6.950;2022-07-23T01:40:35;16.24;95.26
64858;SHT30;51335;51.148;6.950;2022-07-23T01:41:06;16.25;95.32
64858;SHT30;51335;51.148;6.950;2022-07-23T01:41:36;16.25;95.27
64858;SHT30;51335;51.148;6.950;2022-07-23T01:42:06;16.24;95.29
64858;SHT30;51335;51.148;6.950;2022-07-23T01:42:37;16.24;95.36
64858;SHT30;51335;51.148;6.950;2022-07-23T01:43:07;16.24;95.48
64858;SHT30;51335;51.148;6.950;2022-07-23T01:43:37;16.22;95.78
64858;SHT30;51335;51.148;6.950;2022-07-23T01:44:08;16.24;95.77
64858;SHT30;51335;51.148;6.950;2022-07-23T01:44:38;16.22;95.84
64858;SHT30;51335;51.148;6.950;2022-07-23T01:45:08;16.22;96.07
64858;SHT30;51335;51.148;6.950;2022-07-23T01:45:39;16.21;96.18
64858;SHT30;51335;51.148;6.950;2022-07-23T01:46:10;16.20;95.93
64858;SHT30;51335;51.148;6.950;2022-07-23T01:46:40;16.20;95.91
64858;SHT30;51335;51.148;6.950;2022-07-23T01:47:10;16.18;95.92
64858;SHT30;51335;51.148;6.950;2022-07-23T01:47:41;16.20;95.96
64858;SHT30;51335;51.148;6.950;2022-07-23T01:48:11;16.16;96.07
64858;SHT30;51335;51.148;6.950;2022-07-23T01:48:41;16.14;96.16
64858;SHT30;51335;51.148;6.950;2022-07-23T01:49:12;16.18;96.18
64858;SHT30;51335;51.148;6.950;2022-07-23T01:49:42;16.17;96.17
64858;SHT30;51335;51.148;6.950;2022-07-23T01:50:13;16.18;96.15
64858;SHT30;51335;51.148;6.950;2022-07-23T01:50:43;16.17;96.17
64858;SHT30;51335;51.148;6.950;2022-07-23T01:51:13;16.13;96.15
64858;SHT30;51335;51.148;6.950;2022-07-23T01:51:44;16.13;96.31
64858;SHT30;51335;51.148;6.950;2022-07-23T01:52:14;16.11;96.28
64858;SHT30;51335;51.148;6.950;2022-07-23T01:52:44;16.09;96.33
64858;SHT30;51335;51.148;6.950;2022-07-23T01:53:15;16.09;96.33
64858;SHT30;51335;51.148;6.950;2022-07-23T01:53:45;16.09;96.38
64858;SHT30;51335;51.148;6.950;2022-07-23T01:54:15;16.09;96.38
64858;SHT30;51335;51.148;6.950;2022-07-23T01:54:45;16.07;96.39
64858;SHT30;51335;51.148;6.950;2022-07-23T01:55:16;16.06;96.39
64858;SHT30;51335;51.148;6.950;2022-07-23T01:55:47;16.04;96.40
64858;SHT30;51335;51.148;6.950;2022-07-23T01:56:17;16.04;96.48
64858;SHT30;51335;51.148;6.950;2022-07-23T01:56:47;16.01;96.50
64858;SHT30;51335;51.148;6.950;2022-07-23T01:57:17;16.04;96.54
64858;SHT30;51335;51.148;6.950;2022-07-23T01:57:48;16.03;96.56
64858;SHT30;51335;51.148;6.950;2022-07-23T01:58:18;15.99;96.48
64858;SHT30;51335;51.148;6.950;2022-07-23T01:58:49;15.96;96.55
64858;SHT30;51335;51.148;6.950;2022-07-23T01:59:19;15.96;96.53
64858;SHT30;51335;51.148;6.950;2022-07-23T01:59:50;15.94;96.54
64858;SHT30;51335;51.148;6.950;2022-07-23T02:00:20;15.91;96.58
64858;SHT30;51335;51.148;6.950;2022-07-23T02:00:50;15.89;96.62
64858;SHT30;51335;51.148;6.950;2022-07-23T02:01:20;15.87;96.64
64858;SHT30;51335;51.148;6.950;2022-07-23T02:01:51;15.86;96.72
64858;SHT30;51335;51.148;6.950;2022-07-23T02:02:22;15.85;96.70
64858;SHT30;51335;51.148;6.950;2022-07-23T02:02:52;15.82;96.78
64858;SHT30;51335;51.148;6.950;2022-07-23T02:03:23;15.79;96.80
64858;SHT30;51335;51.148;6.950;2022-07-23T02:03:53;15.78;96.85
64858;SHT30;51335;51.148;6.950;2022-07-23T02:04:24;15.74;96.89
64858;SHT30;51335;51.148;6.950;2022-07-23T02:04:55;15.73;96.89
64858;SHT30;51335;51.148;6.950;2022-07-23T02:05:26;15.70;96.94
64858;SHT30;51335;51.148;6.950;2022-07-23T02:05:56;15.67;96.98
64858;SHT30;51335;51.148;6.950;2022-07-23T02:06:26;15.69;97.04
64858;SHT30;51335;51.148;6.950;2022-07-23T02:06:57;15.65;97.10
64858;SHT30;51335;51.148;6.950;2022-07-23T02:07:27;15.66;97.12
64858;SHT30;51335;51.148;6.950;2022-07-23T02:07:58;15.69;97.19
64858;SHT30;51335;51.148;6.950;2022-07-23T02:08:29;15.65;97.16
64858;SHT30;51335;51.148;6.950;2022-07-23T02:08:59;15.61;97.17
64858;SHT30;51335;51.148;6.950;2022-07-23T02:09:30;15.62;97.15
64858;SHT30;51335;51.148;6.950;2022-07-23T02:10:00;15.61;97.20
64858;SHT30;51335;51.148;6.950;2022-07-23T02:10:30;15.61;97.21
64858;SHT30;51335;51.148;6.950;2022-07-23T02:11:01;15.58;97.26
64858;SHT30;51335;51.148;6.950;2022-07-23T02:11:31;15.65;97.29
64858;SHT30;51335;51.148;6.950;2022-07-23T02:12:01;15.67;97.27
64858;SHT30;51335;51.148;6.950;2022-07-23T02:12:32;15.69;97.30
64858;SHT30;51335;51.148;6.950;2022-07-23T02:13:02;15.72;97.29
64858;SHT30;51335;51.148;6.950;2022-07-23T02:13:32;15.72;97.30
64858;SHT30;51335;51.148;6.950;2022-07-23T02:14:03;15.70;97.33
64858;SHT30;51335;51.148;6.950;2022-07-23T02:14:33;15.67;97.30
64858;SHT30;51335;51.148;6.950;2022-07-23T02:15:04;15.66;97.38
64858;SHT30;51335;51.148;6.950;2022-07-23T02:15:35;15.63;97.37
64858;SHT30;51335;51.148;6.950;2022-07-23T02:16:05;15.62;97.47
64858;SHT30;51335;51.148;6.950;2022-07-23T02:16:36;15.62;97.51
64858;SHT30;51335;51.148;6.950;2022-07-23T02:17:06;15.56;97.54
64858;SHT30;51335;51.148;6.950;2022-07-23T02:17:36;15.55;97.52
64858;SHT30;51335;51.148;6.950;2022-07-23T02:18:06;15.52;97.57
64858;SHT30;51335;51.148;6.950;2022-07-23T02:18:37;15.55;97.64
64858;SHT30;51335;51.148;6.950;2022-07-23T02:19:07;15.55;97.64
64858;SHT30;51335;51.148;6.950;2022-07-23T02:19:37;15.52;97.64
64858;SHT30;51335;51.148;6.950;2022-07-23T02:20:09;15.52;97.61
64858;SHT30;51335;51.148;6.950;2022-07-23T02:20:40;15.48;97.52
64858;SHT30;51335;51.148;6.950;2022-07-23T02:21:10;15.46;97.52
64858;SHT30;51335;51.148;6.950;2022-07-23T02:21:40;15.43;97.55
64858;SHT30;51335;51.148;6.950;2022-07-23T02:22:11;15.43;97.58
64858;SHT30;51335;51.148;6.950;2022-07-23T02:22:41;15.43;97.64
64858;SHT30;51335;51.148;6.950;2022-07-23T02:23:11;15.43;97.74
64858;SHT30;51335;51.148;6.950;2022-07-23T02:23:42;15.39;97.69
64858;SHT30;51335;51.148;6.950;2022-07-23T02:24:12;15.41;97.67
64858;SHT30;51335;51.148;6.950;2022-07-23T02:24:42;15.39;97.70
64858;SHT30;51335;51.148;6.950;2022-07-23T02:25:13;15.32;97.73
64858;SHT30;51335;51.148;6.950;2022-07-23T02:25:43;15.31;97.74
64858;SHT30;51335;51.148;6.950;2022-07-23T02:26:13;15.30;97.74
64858;SHT30;51335;51.148;6.950;2022-07-23T02:26:44;15.25;97.77
64858;SHT30;51335;51.148;6.950;2022-07-23T02:27:14;15.28;97.83
64858;SHT30;51335;51.148;6.950;2022-07-23T02:27:44;15.24;97.80
64858;SHT30;51335;51.148;6.950;2022-07-23T02:28:15;15.22;97.83
64858;SHT30;51335;51.148;6.950;2022-07-23T02:28:45;15.20;97.91
64858;SHT30;51335;51.148;6.950;2022-07-23T02:29:15;15.15;97.91
64858;SHT30;51335;51.148;6.950;2022-07-23T02:29:46;15.17;97.92
64858;SHT30;51335;51.148;6.950;2022-07-23T02:30:16;15.15;97.92
64858;SHT30;51335;51.148;6.950;2022-07-23T02:30:46;15.11;97.98
64858;SHT30;51335;51.148;6.950;2022-07-23T02:31:16;15.12;97.99
64858;SHT30;51335;51.148;6.950;2022-07-23T02:31:47;15.10;98.03
64858;SHT30;51335;51.148;6.950;2022-07-23T02:32:17;15.07;98.08
64858;SHT30;51335;51.148;6.950;2022-07-23T02:32:47;15.07;98.11
64858;SHT30;51335;51.148;6.950;2022-07-23T02:33:18;15.08;98.14
64858;SHT30;51335;51.148;6.950;2022-07-23T02:33:48;15.07;98.13
64858;SHT30;51335;51.148;6.950;2022-07-23T02:34:18;15.04;98.18
64858;SHT30;51335;51.148;6.950;2022-07-23T02:34:49;15.03;98.18
64858;SHT30;51335;51.148;6.950;2022-07-23T02:35:19;15.07;98.29
64858;SHT30;51335;51.148;6.950;2022-07-23T02:35:49;15.08;98.20
64858;SHT30;51335;51.148;6.950;2022-07-23T02:36:20;15.08;98.17
64858;SHT30;51335;51.148;6.950;2022-07-23T02:36:50;15.04;98.22
64858;SHT30;51335;51.148;6.950;2022-07-23T02:37:20;15.03;98.23
64858;SHT30;51335;51.148;6.950;2022-07-23T02:37:51;15.07;98.35
64858;SHT30;51335;51.148;6.950;2022-07-23T02:38:21;15.05;98.40
64858;SHT30;51335;51.148;6.950;2022-07-23T02:38:51;15.07;98.44
64858;SHT30;51335;51.148;6.950;2022-07-23T02:39:22;15.03;98.42
64858;SHT30;51335;51.148;6.950;2022-07-23T02:39:52;15.05;98.55
64858;SHT30;51335;51.148;6.950;2022-07-23T02:40:22;15.08;98.55
64858;SHT30;51335;51.148;6.950;2022-07-23T02:40:53;15.11;98.57
64858;SHT30;51335;51.148;6.950;2022-07-23T02:41:23;15.21;98.53
64858;SHT30;51335;51.148;6.950;2022-07-23T02:41:53;15.25;98.41
64858;SHT30;51335;51.148;6.950;2022-07-23T02:42:24;15.28;98.24
64858;SHT30;51335;51.148;6.950;2022-07-23T02:42:54;15.28;98.12
64858;SHT30;51335;51.148;6.950;2022-07-23T02:43:24;15.22;98.09
64858;SHT30;51335;51.148;6.950;2022-07-23T02:43:55;15.20;98.09
64858;SHT30;51335;51.148;6.950;2022-07-23T02:44:25;15.14;98.06
64858;SHT30;51335;51.148;6.950;2022-07-23T02:44:55;15.12;98.09
64858;SHT30;51335;51.148;6.950;2022-07-23T02:45:25;15.10;98.10
64858;SHT30;51335;51.148;6.950;2022-07-23T02:45:56;15.08;98.13
64858;SHT30;51335;51.148;6.950;2022-07-23T02:46:26;15.03;98.16
64858;SHT30;51335;51.148;6.950;2022-07-23T02:46:56;15.00;98.17
64858;SHT30;51335;51.148;6.950;2022-07-23T02:47:27;14.98;98.28
64858;SHT30;51335;51.148;6.950;2022-07-23T02:47:57;14.97;98.30
64858;SHT30;51335;51.148;6.950;2022-07-23T02:48:27;14.95;98.37
64858;SHT30;51335;51.148;6.950;2022-07-23T02:48:57;14.95;98.40
64858;SHT30;51335;51.148;6.950;2022-07-23T02:49:28;14.93;98.41
64858;SHT30;51335;51.148;6.950;2022-07-23T02:49:58;14.93;98.39
64858;SHT30;51335;51.148;6.950;2022-07-23T02:50:28;14.88;98.45
64858;SHT30;51335;51.148;6.950;2022-07-23T02:50:59;14.90;98.48
64858;SHT30;51335;51.148;6.950;2022-07-23T02:51:29;14.93;98.46
64858;SHT30;51335;51.148;6.950;2022-07-23T02:51:59;14.91;98.39
64858;SHT30;51335;51.148;6.950;2022-07-23T02:52:30;14.88;98.38
64858;SHT30;51335;51.148;6.950;2022-07-23T02:53:00;14.88;98.32
64858;SHT30;51335;51.148;6.950;2022-07-23T02:53:30;14.84;98.37
64858;SHT30;51335;51.148;6.950;2022-07-23T02:54:01;14.79;98.33
64858;SHT30;51335;51.148;6.950;2022-07-23T02:54:31;14.79;98.43
64858;SHT30;51335;51.148;6.950;2022-07-23T02:55:01;14.76;98.43
64858;SHT30;51335;51.148;6.950;2022-07-23T02:55:32;14.74;98.51
64858;SHT30;51335;51.148;6.950;2022-07-23T02:56:02;14.73;98.55
64858;SHT30;51335;51.148;6.950;2022-07-23T02:56:32;14.72;98.59
64858;SHT30;51335;51.148;6.950;2022-07-23T02:57:03;14.73;98.63
64858;SHT30;51335;51.148;6.950;2022-07-23T02:57:34;14.79;98.75
64858;SHT30;51335;51.148;6.950;2022-07-23T02:58:04;14.80;98.79
64858;SHT30;51335;51.148;6.950;2022-07-23T02:58:34;14.88;98.80
64858;SHT30;51335;51.148;6.950;2022-07-23T02:59:05;14.94;98.74
64858;SHT30;51335;51.148;6.950;2022-07-23T02:59:35;15.00;98.62
64858;SHT30;51335;51.148;6.950;2022-07-23T03:00:06;15.05;98.47
64858;SHT30;51335;51.148;6.950;2022-07-23T03:00:36;15.03;98.39
64858;SHT30;51335;51.148;6.950;2022-07-23T03:01:07;15.07;98.29
64858;SHT30;51335;51.148;6.950;2022-07-23T03:01:37;15.04;98.23
64858;SHT30;51335;51.148;6.950;2022-07-23T03:02:08;15.00;98.20
64858;SHT30;51335;51.148;6.950;2022-07-23T03:02:38;14.98;98.25
64858;SHT30;51335;51.148;6.950;2022-07-23T03:03:09;14.95;98.29
64858;SHT30;51335;51.148;6.950;2022-07-23T03:03:39;14.98;98.31
64858;SHT30;51335;51.148;6.950;2022-07-23T03:04:10;14.98;98.27
64858;SHT30;51335;51.148;6.950;2022-07-23T03:04:40;15.01;98.17
64858;SHT30;51335;51.148;6.950;2022-07-23T03:05:10;14.98;98.09
64858;SHT30;51335;51.148;6.950;2022-07-23T03:05:41;14.98;98.08
64858;SHT30;51335;51.148;6.950;2022-07-23T03:06:11;14.97;98.09
64858;SHT30;51335;51.148;6.950;2022-07-23T03:06:41;14.94;98.05
64858;SHT30;51335;51.148;6.950;2022-07-23T03:07:12;14.90;98.10
64858;SHT30;51335;51.148;6.950;2022-07-23T03:07:42;14.91;98.10
64858;SHT30;51335;51.148;6.950;2022-07-23T03:08:12;14.88;98.14
64858;SHT30;51335;51.148;6.950;2022-07-23T03:08:42;14.90;98.17
64858;SHT30;51335;51.148;6.950;2022-07-23T03:09:14;14.91;98.16
64858;SHT30;51335;51.148;6.950;2022-07-23T03:09:44;14.93;98.14
64858;SHT30;51335;51.148;6.950;2022-07-23T03:10:14;14.88;98.07
64858;SHT30;51335;51.148;6.950;2022-07-23T03:10:44;14.85;98.11
64858;SHT30;51335;51.148;6.950;2022-07-23T03:11:15;14.90;98.22
64858;SHT30;51335;51.148;6.950;2022-07-23T03:11:45;14.91;98.17
64858;SHT30;51335;51.148;6.950;2022-07-23T03:12:15;14.91;98.12
64858;SHT30;51335;51.148;6.950;2022-07-23T03:12:46;14.94;98.04
64858;SHT30;51335;51.148;6.950;2022-07-23T03:13:16;14.91;98.00